Time;durP1;ratioP1;P1;durP2;ratioP2;P2;SDS_P1;SDS_P2;PMS_P1;PMS_P2;Temp;Humidity;BMP_temperature;BMP_pressure;BME280_temperature;BME280_humidity;BME280_pressure;Samples;Min_cycle;Max_cycle;Signal;HPM_P1;HPM_P2
2021/05/28 00:02:15;;;;;;;5.05;1.63;;;9.40;99.90;;;;;;4987278;28;20030;-75
2021/05/28 00:04:43;;;;;;;7.75;1.80;;;9.30;99.90;;;;;;4986988;28;20031;-74
2021/05/28 00:07:09;;;;;;;6.53;2.30;;;9.30;99.90;;;;;;4988626;28;20112;-76
2021/05/28 00:09:35;;;;;;;8.05;2.05;;;9.20;99.90;;;;;;4988465;28;20039;-74
2021/05/28 00:12:01;;;;;;;10.57;2.63;;;9.20;99.90;;;;;;4988250;28;20137;-73
2021/05/28 00:14:27;;;;;;;8.65;1.80;;;9.20;99.90;;;;;;4988273;28;20125;-75
2021/05/28 00:16:54;;;;;;;3.58;2.13;;;9.20;99.90;;;;;;4996097;28;20022;-75
2021/05/28 00:19:20;;;;;;;5.45;2.63;;;9.20;99.90;;;;;;4987835;28;20038;-71
2021/05/28 00:21:46;;;;;;;3.30;1.92;;;9.10;99.90;;;;;;4992215;28;20022;-75
2021/05/28 00:24:12;;;;;;;6.50;2.03;;;9.10;99.90;;;;;;5005975;28;20479;-74
2021/05/28 00:26:37;;;;;;;1.83;1.45;;;9.10;99.90;;;;;;5007752;28;20034;-76
2021/05/28 00:29:04;;;;;;;3.63;1.92;;;9.00;99.90;;;;;;5006418;28;20033;-75
2021/05/28 00:31:30;;;;;;;5.43;2.20;;;9.00;99.90;;;;;;5006043;28;20038;-74
2021/05/28 00:33:55;;;;;;;7.50;2.63;;;8.90;99.90;;;;;;5007533;28;20034;-77
2021/05/28 00:36:21;;;;;;;3.25;2.42;;;8.90;99.90;;;;;;5007581;28;20050;-75
2021/05/28 00:38:47;;;;;;;2.47;1.08;;;8.90;99.90;;;;;;5002323;28;20099;-75
2021/05/28 00:41:13;;;;;;;9.40;2.40;;;8.90;99.90;;;;;;4987982;28;20030;-74
2021/05/28 00:43:39;;;;;;;6.43;2.30;;;8.80;99.90;;;;;;4987903;28;20035;-81
2021/05/28 00:46:05;;;;;;;4.75;2.08;;;8.80;99.90;;;;;;4987791;28;20029;-74
2021/05/28 00:48:31;;;;;;;3.33;1.73;;;8.80;99.90;;;;;;4986579;28;21073;-75
2021/05/28 00:50:56;;;;;;;3.60;1.67;;;8.80;99.90;;;;;;4986457;28;20126;-75
2021/05/28 00:53:24;;;;;;;5.25;2.15;;;8.80;99.90;;;;;;4987497;28;20030;-76
2021/05/28 00:55:50;;;;;;;5.97;1.88;;;8.80;99.90;;;;;;4986252;28;20078;-77
2021/05/28 00:58:17;;;;;;;13.35;1.90;;;8.80;99.90;;;;;;4987308;28;20031;-75
2021/05/28 01:00:44;;;;;;;2.58;1.23;;;8.80;99.90;;;;;;4987507;28;20027;-74
2021/05/28 01:03:10;;;;;;;8.80;2.13;;;8.80;99.90;;;;;;4989735;28;20039;-75
2021/05/28 01:05:35;;;;;;;2.42;1.45;;;8.80;99.90;;;;;;5006813;28;20033;-76
2021/05/28 01:08:01;;;;;;;5.47;1.95;;;8.70;99.90;;;;;;5005518;28;20038;-75
2021/05/28 01:10:27;;;;;;;3.30;2.08;;;8.80;99.90;;;;;;5006687;28;20065;-76
2021/05/28 01:13:04;;;;;;;2.65;1.60;;;8.80;99.90;;;;;;5006303;28;20026;-74
2021/05/28 01:15:30;;;;;;;3.45;1.77;;;8.70;99.90;;;;;;5006871;28;20109;-74
2021/05/28 01:17:56;;;;;;;6.15;1.70;;;8.70;99.90;;;;;;5005272;28;20487;-76
2021/05/28 01:20:22;;;;;;;4.57;2.13;;;8.80;99.90;;;;;;5006268;28;20054;-72
2021/05/28 01:22:48;;;;;;;2.85;1.73;;;8.70;99.90;;;;;;5006375;28;20462;-74
2021/05/28 01:25:14;;;;;;;4.10;2.03;;;8.70;99.90;;;;;;5005119;28;20022;-76
2021/05/28 01:27:40;;;;;;;6.05;1.98;;;8.70;99.90;;;;;;4997436;28;20387;-75
2021/05/28 01:30:06;;;;;;;4.95;1.65;;;8.70;99.90;;;;;;4987018;28;20026;-76
2021/05/28 01:32:32;;;;;;;4.68;1.83;;;8.70;99.90;;;;;;5001331;28;20027;-76
2021/05/28 01:34:57;;;;;;;4.50;1.98;;;8.70;99.90;;;;;;4986696;28;20579;-76
2021/05/28 01:37:23;;;;;;;4.50;2.22;;;8.70;99.90;;;;;;5001771;28;20037;-74
2021/05/28 01:39:50;;;;;;;5.75;2.17;;;8.70;99.90;;;;;;4986439;28;20026;-77
2021/05/28 01:42:17;;;;;;;2.40;1.48;;;8.70;99.90;;;;;;4986563;28;20037;-77
2021/05/28 01:44:44;;;;;;;6.05;1.65;;;8.70;99.90;;;;;;4986689;28;20027;-75
2021/05/28 01:47:11;;;;;;;12.70;2.88;;;8.70;99.90;;;;;;4986390;28;20072;-75
2021/05/28 01:49:40;;;;;;;8.13;2.63;;;8.70;99.90;;;;;;4986800;28;20057;-78
2021/05/28 01:52:06;;;;;;;5.32;1.75;;;8.70;99.90;;;;;;4986797;28;20106;-76
2021/05/28 01:54:40;;;;;;;4.88;2.70;;;8.70;99.90;;;;;;4986084;28;20050;-76
2021/05/28 01:57:07;;;;;;;10.65;3.20;;;8.70;99.90;;;;;;4986426;28;20098;-75
2021/05/28 01:59:33;;;;;;;6.70;2.25;;;8.70;99.90;;;;;;4985132;28;20125;-77
2021/05/28 02:01:58;;;;;;;6.70;2.28;;;8.60;99.90;;;;;;4986231;28;20549;-74
2021/05/28 02:04:24;;;;;;;5.38;2.30;;;8.70;99.90;;;;;;5001126;28;20043;-74
2021/05/28 02:06:51;;;;;;;6.47;2.42;;;8.60;99.90;;;;;;4985923;28;20128;-74
2021/05/28 02:09:17;;;;;;;6.85;2.38;;;8.70;99.90;;;;;;4986163;28;20066;-77
2021/05/28 02:11:42;;;;;;;6.90;2.45;;;8.70;99.90;;;;;;4986273;28;20034;-78
2021/05/28 02:14:08;;;;;;;5.45;3.20;;;8.70;99.90;;;;;;4984666;28;20031;-75
2021/05/28 02:16:34;;;;;;;9.32;3.25;;;8.70;99.90;;;;;;4986325;28;20109;-72
2021/05/28 02:19:00;;;;;;;8.90;3.03;;;8.70;99.90;;;;;;4986388;28;20030;-77
2021/05/28 02:21:27;;;;;;;14.70;4.10;;;8.70;99.90;;;;;;4985731;28;20026;-76
2021/05/28 02:23:53;;;;;;;10.88;3.95;;;8.70;99.90;;;;;;4986078;28;20026;-73
2021/05/28 02:26:19;;;;;;;9.13;3.92;;;8.70;99.90;;;;;;4985848;28;20050;-75
2021/05/28 02:28:44;;;;;;;19.65;5.20;;;8.80;99.90;;;;;;4985723;28;20031;-77
2021/05/28 02:31:10;;;;;;;29.92;4.35;;;8.70;99.90;;;;;;4986119;28;20058;-77
2021/05/28 02:33:37;;;;;;;10.00;4.72;;;8.80;99.90;;;;;;4986120;28;20042;-73
2021/05/28 02:36:04;;;;;;;8.02;4.50;;;8.90;99.90;;;;;;4984536;28;20031;-75
2021/05/28 02:38:30;;;;;;;7.60;3.80;;;8.90;99.90;;;;;;4984690;28;20098;-75
2021/05/28 02:40:55;;;;;;;8.00;4.15;;;8.90;99.90;;;;;;4984360;28;20027;-78
2021/05/28 02:43:21;;;;;;;11.52;4.35;;;8.90;99.90;;;;;;5000249;28;20407;-76
2021/05/28 02:45:47;;;;;;;8.05;4.43;;;8.90;99.90;;;;;;4985826;28;20038;-75
2021/05/28 02:48:12;;;;;;;10.07;4.97;;;8.90;99.90;;;;;;4985665;28;20086;-76
2021/05/28 02:50:38;;;;;;;6.95;3.90;;;8.90;99.90;;;;;;4985464;28;20022;-74
2021/05/28 02:53:04;;;;;;;8.52;4.03;;;8.90;99.90;;;;;;4985951;28;20030;-76
2021/05/28 02:55:30;;;;;;;10.88;4.38;;;9.00;99.90;;;;;;4985615;28;20058;-75
2021/05/28 02:57:56;;;;;;;4.85;3.25;;;8.90;99.90;;;;;;4985367;28;20510;-75
2021/05/28 03:00:23;;;;;;;7.82;4.10;;;8.90;99.90;;;;;;4985605;28;20383;-76
2021/05/28 03:02:49;;;;;;;7.90;4.18;;;9.00;99.90;;;;;;4985356;28;20042;-73
2021/05/28 03:05:16;;;;;;;11.50;4.32;;;9.00;99.90;;;;;;4985633;28;20035;-74
2021/05/28 03:07:41;;;;;;;7.53;4.38;;;9.00;99.90;;;;;;4985731;28;20026;-76
2021/05/28 03:10:09;;;;;;;10.18;5.35;;;9.00;99.90;;;;;;4985427;28;20043;-73
2021/05/28 03:12:35;;;;;;;15.50;5.93;;;9.00;99.90;;;;;;4985719;28;20031;-72
2021/05/28 03:15:01;;;;;;;12.43;5.15;;;9.00;99.90;;;;;;4985737;28;20035;-73
2021/05/28 03:17:27;;;;;;;13.85;4.25;;;9.00;99.90;;;;;;4985447;28;20083;-73
2021/05/28 03:19:53;;;;;;;10.27;5.60;;;9.00;99.90;;;;;;5000425;28;20038;-74
2021/05/28 03:24:57;;;;;;;10.93;3.95;;;9.10;99.90;;;;;;4985116;28;20103;-73
2021/05/28 03:27:23;;;;;;;16.75;5.30;;;9.10;99.90;;;;;;4984260;28;20027;-75
2021/05/28 03:29:48;;;;;;;7.30;4.05;;;9.10;99.90;;;;;;4985532;28;20027;-74
2021/05/28 03:32:15;;;;;;;10.68;5.25;;;9.10;99.90;;;;;;5000019;28;20081;-74
2021/05/28 03:34:40;;;;;;;9.73;5.50;;;9.10;99.90;;;;;;4985375;28;20027;-74
2021/05/28 03:37:06;;;;;;;8.43;4.63;;;9.10;99.90;;;;;;4985231;28;20033;-76
2021/05/28 03:39:32;;;;;;;11.25;4.95;;;9.10;99.90;;;;;;4985427;28;20034;-75
2021/05/28 03:41:58;;;;;;;9.25;5.53;;;9.10;99.90;;;;;;4984220;28;20031;-75
2021/05/28 03:44:23;;;;;;;12.05;5.07;;;9.20;99.90;;;;;;5000055;28;20035;-74
2021/05/28 03:46:49;;;;;;;10.60;5.63;;;9.20;99.90;;;;;;4985300;28;20031;-76
2021/05/28 03:49:14;;;;;;;8.23;4.93;;;9.30;99.90;;;;;;4985289;28;20031;-77
2021/05/28 03:51:40;;;;;;;11.00;5.88;;;9.30;99.90;;;;;;4983835;28;20086;-74
2021/05/28 03:54:06;;;;;;;13.82;5.90;;;9.30;99.90;;;;;;4985250;28;20031;-75
2021/05/28 03:56:31;;;;;;;9.13;4.70;;;9.30;99.90;;;;;;4987613;28;20051;-75
2021/05/28 03:58:57;;;;;;;12.07;6.10;;;9.30;99.90;;;;;;4988334;28;20038;-75
2021/05/28 04:01:22;;;;;;;8.10;5.05;;;9.40;99.90;;;;;;4988492;28;20041;-75
2021/05/28 04:03:48;;;;;;;20.55;6.03;;;9.50;99.90;;;;;;4987375;28;20038;-75
2021/05/28 04:06:13;;;;;;;15.93;6.57;;;9.40;99.90;;;;;;4988313;28;20447;-76
2021/05/28 04:08:39;;;;;;;15.50;6.82;;;9.40;99.90;;;;;;4988822;28;20031;-75
2021/05/28 04:11:05;;;;;;;16.05;5.82;;;9.40;99.90;;;;;;4988528;28;20034;-74
2021/05/28 04:13:31;;;;;;;11.82;6.00;;;9.50;99.90;;;;;;4986836;28;20054;-73
2021/05/28 04:15:58;;;;;;;13.98;5.95;;;9.50;99.90;;;;;;4988382;28;20480;-73
2021/05/28 04:18:24;;;;;;;10.05;4.88;;;9.50;99.90;;;;;;4988261;28;20046;-73
2021/05/28 04:20:50;;;;;;;9.75;5.28;;;9.50;99.90;;;;;;4988008;28;20027;-76
2021/05/28 04:23:16;;;;;;;12.60;5.55;;;9.50;99.90;;;;;;4988404;28;20042;-74
2021/05/28 04:25:41;;;;;;;17.00;5.00;;;9.60;99.90;;;;;;4988170;28;20026;-73
2021/05/28 04:28:07;;;;;;;10.02;5.72;;;9.60;99.90;;;;;;4987944;28;20026;-74
2021/05/28 04:30:33;;;;;;;10.73;6.10;;;9.60;99.90;;;;;;4988324;28;20019;-74
2021/05/28 04:32:58;;;;;;;10.82;5.35;;;9.60;99.90;;;;;;4987900;28;20042;-73
2021/05/28 04:35:24;;;;;;;16.73;5.60;;;9.60;99.90;;;;;;4987888;28;20057;-74
2021/05/28 04:37:50;;;;;;;7.82;4.35;;;9.70;99.90;;;;;;4988221;28;20023;-74
2021/05/28 04:40:16;;;;;;;12.38;5.18;;;9.70;99.90;;;;;;4988140;28;20035;-75
2021/05/28 04:42:41;;;;;;;16.88;6.15;;;9.70;99.90;;;;;;4986414;28;20039;-74
2021/05/28 04:45:07;;;;;;;9.93;4.43;;;9.70;99.90;;;;;;4987847;28;20030;-79
2021/05/28 04:47:33;;;;;;;9.02;4.43;;;9.70;99.90;;;;;;5002617;28;20031;-74
2021/05/28 04:49:59;;;;;;;12.30;5.82;;;9.70;99.90;;;;;;4987665;28;20037;-71
2021/05/28 04:52:25;;;;;;;8.57;4.65;;;9.70;99.90;;;;;;4986369;28;20033;-77
2021/05/28 04:54:50;;;;;;;8.68;5.30;;;9.70;99.90;;;;;;4987313;28;20031;-75
2021/05/28 04:57:16;;;;;;;7.95;4.40;;;9.70;99.90;;;;;;4987445;28;20051;-75
2021/05/28 04:59:41;;;;;;;11.57;5.15;;;9.70;99.90;;;;;;4987602;28;20027;-74
2021/05/28 05:02:08;;;;;;;9.48;4.75;;;9.60;99.90;;;;;;4987461;28;20031;-75
2021/05/28 05:04:33;;;;;;;8.18;4.35;;;9.60;99.90;;;;;;4986373;28;20049;-73
2021/05/28 05:06:59;;;;;;;10.85;4.60;;;9.60;99.90;;;;;;4986283;28;20039;-72
2021/05/28 05:09:24;;;;;;;10.75;4.45;;;9.60;99.90;;;;;;5002182;28;20033;-74
2021/05/28 05:11:51;;;;;;;9.77;4.70;;;9.60;99.90;;;;;;4987525;28;20054;-74
2021/05/28 05:14:16;;;;;;;10.25;5.22;;;9.50;99.90;;;;;;4985972;28;20081;-78
2021/05/28 05:16:42;;;;;;;8.88;4.32;;;9.50;99.90;;;;;;4987090;28;20106;-73
2021/05/28 05:19:07;;;;;;;8.23;4.45;;;9.50;99.90;;;;;;4987365;28;20031;-75
2021/05/28 05:21:33;;;;;;;7.32;4.13;;;9.50;99.90;;;;;;4987077;28;20048;-77
2021/05/28 05:23:58;;;;;;;7.50;4.32;;;9.40;99.90;;;;;;5001846;28;20065;-74
2021/05/28 05:26:24;;;;;;;12.63;4.30;;;9.40;99.90;;;;;;4986978;28;20027;-74
2021/05/28 05:28:49;;;;;;;12.63;4.93;;;9.30;99.90;;;;;;4986682;28;20038;-76
2021/05/28 05:31:15;;;;;;;9.93;4.22;;;9.30;99.90;;;;;;4998143;28;20064;-73
2021/05/28 05:33:41;;;;;;;6.10;3.92;;;9.30;99.90;;;;;;4994640;28;20038;-76
2021/05/28 05:36:07;;;;;;;7.65;3.20;;;9.30;99.90;;;;;;4986367;28;20019;-73
2021/05/28 05:38:32;;;;;;;5.18;3.10;;;9.30;99.90;;;;;;4999580;28;20034;-72
2021/05/28 05:40:58;;;;;;;7.47;3.53;;;9.30;99.90;;;;;;5006435;28;20031;-72
2021/05/28 05:43:23;;;;;;;10.15;3.72;;;9.20;99.90;;;;;;5004501;28;20038;-74
2021/05/28 05:45:49;;;;;;;10.63;3.75;;;9.10;99.90;;;;;;5005964;28;20045;-74
2021/05/28 05:48:15;;;;;;;10.40;4.07;;;9.20;99.90;;;;;;5004832;28;20046;-81
2021/05/28 05:50:41;;;;;;;9.13;3.67;;;9.20;99.90;;;;;;5002737;28;20037;-75
2021/05/28 05:53:07;;;;;;;10.95;4.15;;;9.20;99.90;;;;;;5003398;28;20113;-74
2021/05/28 05:55:32;;;;;;;7.72;4.35;;;9.10;99.90;;;;;;4987855;28;20045;-74
2021/05/28 05:57:58;;;;;;;7.32;3.63;;;9.20;99.90;;;;;;5003310;28;20045;-74
2021/05/28 06:00:24;;;;;;;13.75;4.18;;;9.20;99.90;;;;;;5002565;28;20031;-74
2021/05/28 06:02:50;;;;;;;10.43;4.15;;;9.20;99.90;;;;;;4997475;28;20043;-74
2021/05/28 06:05:18;;;;;;;7.65;4.43;;;9.20;99.90;;;;;;5003988;28;20077;-73
2021/05/28 06:07:43;;;;;;;12.73;4.15;;;9.20;99.90;;;;;;5001469;28;20102;-76
2021/05/28 06:10:11;;;;;;;12.32;4.45;;;9.30;99.90;;;;;;5001779;28;20027;-75
2021/05/28 06:12:36;;;;;;;6.82;3.67;;;9.30;99.90;;;;;;4986805;28;20023;-76
2021/05/28 06:15:02;;;;;;;6.72;3.38;;;9.40;99.90;;;;;;4985641;28;20467;-76
2021/05/28 06:17:28;;;;;;;21.00;4.47;;;9.40;99.90;;;;;;4987364;28;20033;-74
2021/05/28 06:19:53;;;;;;;6.25;2.80;;;9.50;99.90;;;;;;4986211;28;20035;-76
2021/05/28 06:22:21;;;;;;;11.77;3.28;;;9.60;99.90;;;;;;4986634;28;20034;-75
2021/05/28 06:24:48;;;;;;;7.30;3.80;;;9.60;99.90;;;;;;4986276;28;20050;-73
2021/05/28 06:27:14;;;;;;;11.27;2.83;;;9.70;99.90;;;;;;4984968;28;20023;-75
2021/05/28 06:29:40;;;;;;;15.75;3.40;;;9.70;99.90;;;;;;4984792;28;20105;-71
2021/05/28 06:32:06;;;;;;;8.05;3.63;;;9.80;99.90;;;;;;4986256;28;20542;-74
2021/05/28 06:34:32;;;;;;;9.63;3.28;;;9.90;99.90;;;;;;4986190;28;20038;-73
2021/05/28 06:36:58;;;;;;;9.52;3.13;;;9.90;99.90;;;;;;4985770;28;20043;-73
2021/05/28 06:39:24;;;;;;;16.42;3.90;;;10.00;99.90;;;;;;5000627;28;20023;-74
2021/05/28 06:41:49;;;;;;;8.00;3.35;;;10.10;99.90;;;;;;5001026;28;20038;-73
2021/05/28 06:44:15;;;;;;;5.82;2.92;;;10.10;99.90;;;;;;4985793;28;20038;-73
2021/05/28 06:46:41;;;;;;;7.40;3.35;;;10.10;99.90;;;;;;4986149;28;20027;-76
2021/05/28 06:49:06;;;;;;;14.25;4.28;;;10.10;99.90;;;;;;5001366;28;20054;-73
2021/05/28 06:51:32;;;;;;;7.97;2.60;;;10.20;99.90;;;;;;4985996;28;20058;-77
2021/05/28 06:53:57;;;;;;;7.25;3.03;;;10.20;99.90;;;;;;4985414;28;20491;-74
2021/05/28 06:56:23;;;;;;;6.22;2.95;;;10.30;99.90;;;;;;5000100;28;20115;-77
2021/05/28 06:58:50;;;;;;;11.07;3.45;;;10.30;99.90;;;;;;4983679;28;20024;-72
2021/05/28 07:01:16;;;;;;;9.07;3.10;;;10.40;99.90;;;;;;4985054;28;20091;-78
2021/05/28 07:03:42;;;;;;;5.82;2.60;;;10.50;99.90;;;;;;5001072;28;20403;-76
2021/05/28 07:06:08;;;;;;;4.63;2.55;;;10.60;99.90;;;;;;4985880;28;20046;-75
2021/05/28 07:08:34;;;;;;;7.03;3.28;;;10.70;99.90;;;;;;4986148;28;20078;-75
2021/05/28 07:11:00;;;;;;;13.18;3.50;;;10.80;99.90;;;;;;4985833;28;20064;-74
2021/05/28 07:13:26;;;;;;;6.20;2.70;;;10.90;99.90;;;;;;4985719;28;20026;-73
2021/05/28 07:15:52;;;;;;;10.07;2.70;;;10.90;99.90;;;;;;4991312;28;20081;-76
2021/05/28 07:18:18;;;;;;;5.82;2.30;;;11.00;99.90;;;;;;4997679;28;20038;-76
2021/05/28 07:20:44;;;;;;;6.15;2.80;;;11.00;99.90;;;;;;4992646;28;20037;-74
2021/05/28 07:23:11;;;;;;;4.05;2.35;;;11.00;99.90;;;;;;5000449;28;20042;-74
2021/05/28 07:25:37;;;;;;;3.72;2.03;;;11.00;99.90;;;;;;4985389;28;20022;-76
2021/05/28 07:28:03;;;;;;;3.17;2.13;;;11.00;99.90;;;;;;4984143;28;20029;-76
2021/05/28 07:30:29;;;;;;;5.68;2.60;;;11.00;99.90;;;;;;5001749;28;20031;-77
2021/05/28 07:32:54;;;;;;;4.82;2.10;;;11.10;99.90;;;;;;5003772;28;20036;-75
2021/05/28 07:35:20;;;;;;;3.28;1.88;;;11.20;99.90;;;;;;5007564;28;20030;-73
2021/05/28 07:37:46;;;;;;;5.47;2.22;;;11.20;99.90;;;;;;5008204;28;20041;-74
2021/05/28 07:40:12;;;;;;;3.10;1.67;;;11.30;99.90;;;;;;5008819;28;20026;-71
2021/05/28 07:42:38;;;;;;;4.93;2.20;;;11.30;99.90;;;;;;5008448;28;20022;-79
2021/05/28 07:45:04;;;;;;;7.22;1.85;;;11.30;99.90;;;;;;5007994;28;20054;-74
2021/05/28 07:47:30;;;;;;;7.05;2.80;;;11.30;99.90;;;;;;5006121;28;20019;-73
2021/05/28 07:49:56;;;;;;;3.25;2.25;;;11.40;99.90;;;;;;5005569;28;20037;-75
2021/05/28 07:52:22;;;;;;;7.75;2.22;;;11.40;99.90;;;;;;5008342;28;20022;-76
2021/05/28 07:54:49;;;;;;;12.40;2.63;;;11.40;99.90;;;;;;5008349;28;20098;-75
2021/05/28 07:57:14;;;;;;;5.85;2.75;;;11.50;99.90;;;;;;5006060;28;20054;-77
2021/05/28 07:59:40;;;;;;;4.88;2.65;;;11.60;99.90;;;;;;5007455;28;20036;-76
2021/05/28 08:02:06;;;;;;;6.07;2.50;;;11.70;99.90;;;;;;5007736;28;20034;-75
2021/05/28 08:04:33;;;;;;;4.82;2.38;;;11.70;99.90;;;;;;5007505;28;20034;-77
2021/05/28 08:06:58;;;;;;;3.80;2.25;;;11.70;99.90;;;;;;5005888;28;20030;-79
2021/05/28 08:09:24;;;;;;;5.25;2.35;;;11.70;99.90;;;;;;5003432;28;20102;-77
2021/05/28 08:11:49;;;;;;;3.50;1.70;;;11.90;99.90;;;;;;5007073;28;20029;-77
2021/05/28 08:14:15;;;;;;;8.50;2.25;;;11.90;99.90;;;;;;5007165;28;20033;-78
2021/05/28 08:16:41;;;;;;;4.10;2.30;;;12.00;99.90;;;;;;5002997;28;20467;-72
2021/05/28 08:19:06;;;;;;;7.80;2.72;;;12.00;99.90;;;;;;4988036;28;20027;-78
2021/05/28 08:21:32;;;;;;;4.70;2.10;;;12.00;99.90;;;;;;4988332;28;20023;-73
2021/05/28 08:23:57;;;;;;;3.38;2.00;;;11.90;99.90;;;;;;4988080;28;20059;-72
2021/05/28 08:26:23;;;;;;;3.10;2.20;;;12.00;99.90;;;;;;4986950;28;20109;-74
2021/05/28 08:28:49;;;;;;;8.20;2.20;;;12.00;99.90;;;;;;5003240;28;20054;-76
2021/05/28 08:31:14;;;;;;;5.88;2.42;;;12.20;99.90;;;;;;4988030;28;20083;-76
2021/05/28 08:33:42;;;;;;;3.15;1.80;;;12.20;99.90;;;;;;5003520;28;20055;-78
2021/05/28 08:36:08;;;;;;;5.07;2.13;;;12.40;99.90;;;;;;4988214;28;20047;-73
2021/05/28 08:38:34;;;;;;;5.25;2.08;;;12.50;99.90;;;;;;4988409;28;20019;-75
2021/05/28 08:40:59;;;;;;;4.82;2.65;;;12.50;99.90;;;;;;4988330;28;20057;-79
2021/05/28 08:43:25;;;;;;;16.08;2.50;;;12.70;99.90;;;;;;5005931;28;20038;-76
2021/05/28 08:45:51;;;;;;;7.40;2.72;;;12.70;99.90;;;;;;5004271;28;20034;-72
2021/05/28 08:48:19;;;;;;;7.15;2.80;;;12.80;99.90;;;;;;4995049;28;20027;-76
2021/05/28 08:50:47;;;;;;;6.53;2.33;;;12.80;99.90;;;;;;5005913;28;20031;-74
2021/05/28 08:53:14;;;;;;;6.03;2.67;;;12.90;99.90;;;;;;4986763;28;20086;-73
2021/05/28 08:55:41;;;;;;;8.07;2.00;;;13.00;99.90;;;;;;4989176;28;20030;-75
2021/05/28 08:58:16;;;;;;;4.95;2.25;;;13.10;99.90;;;;;;4988391;28;20026;-78
2021/05/28 09:00:45;;;;;;;4.88;1.80;;;13.20;99.90;;;;;;4996748;28;20053;-76
2021/05/28 09:03:26;;;;;;;8.60;2.08;;;13.20;99.90;;;;;;4994315;28;20042;-79
2021/05/28 09:05:55;;;;;;;3.65;1.80;;;13.10;99.90;;;;;;4995903;28;20034;-76
2021/05/28 09:08:24;;;;;;;6.25;1.90;;;13.20;99.90;;;;;;5005617;28;20407;-77
2021/05/28 09:10:50;;;;;;;5.47;1.58;;;13.40;99.90;;;;;;5002268;28;20094;-78
2021/05/28 09:13:18;;;;;;;3.03;1.83;;;13.40;99.90;;;;;;4985974;28;20026;-76
2021/05/28 09:15:47;;;;;;;5.60;2.08;;;13.50;99.90;;;;;;4986079;28;20031;-73
2021/05/28 09:18:13;;;;;;;6.32;1.38;;;13.60;99.90;;;;;;4996739;28;20042;-73
2021/05/28 09:20:44;;;;;;;3.33;1.52;;;13.80;99.90;;;;;;5006482;28;20035;-77
2021/05/28 09:23:16;;;;;;;4.07;1.85;;;14.00;99.90;;;;;;5005928;28;20038;-78
2021/05/28 09:26:03;;;;;;;6.60;1.60;;;14.20;99.90;;;;;;4992513;28;20077;-78
2021/05/28 09:28:35;;;;;;;7.47;1.77;;;14.30;99.90;;;;;;4985534;28;20043;-76
2021/05/28 09:31:03;;;;;;;2.15;1.27;;;14.50;99.90;;;;;;4986423;28;20102;-76
2021/05/28 09:33:39;;;;;;;3.75;1.75;;;14.30;99.90;;;;;;4986169;28;20038;-75
2021/05/28 09:36:20;;;;;;;2.72;1.50;;;14.40;99.90;;;;;;4985046;28;20035;-73
2021/05/28 09:39:12;;;;;;;6.10;1.92;;;14.40;99.90;;;;;;4987015;28;20039;-76
2021/05/28 09:41:40;;;;;;;2.70;1.52;;;14.60;99.90;;;;;;5004267;28;20073;-75
2021/05/28 09:44:19;;;;;;;2.67;1.45;;;14.80;99.90;;;;;;5004696;28;20042;-74
2021/05/28 09:47:07;;;;;;;2.78;1.80;;;14.90;99.90;;;;;;5004671;28;20125;-71
2021/05/28 09:49:49;;;;;;;5.57;1.92;;;15.10;99.90;;;;;;5006255;28;20082;-73
2021/05/28 09:52:24;;;;;;;4.95;1.90;;;15.40;99.90;;;;;;4998787;28;20090;-73
2021/05/28 09:54:58;;;;;;;;;;;15.40;99.90;;;;;;5000923;28;20126;-71
2021/05/28 09:57:28;;;;;;;2.95;1.42;;;15.50;99.90;;;;;;5004048;28;19918;-72
2021/05/28 09:59:54;;;;;;;3.03;1.67;;;15.40;99.90;;;;;;5003648;28;20060;-75
2021/05/28 10:02:25;;;;;;;12.18;1.40;;;15.30;99.90;;;;;;5004297;28;20082;-73
2021/05/28 10:04:53;;;;;;;3.17;1.17;;;15.20;99.90;;;;;;5005174;28;20039;-74
2021/05/28 10:07:19;;;;;;;5.10;1.60;;;15.20;99.90;;;;;;4994435;28;20026;-75
2021/05/28 10:09:45;;;;;;;5.70;1.52;;;15.10;99.90;;;;;;4998637;28;20069;-73
2021/05/28 10:12:12;;;;;;;7.03;1.10;;;15.20;99.90;;;;;;4987681;28;20022;-73
2021/05/28 10:14:39;;;;;;;2.05;1.20;;;15.30;99.90;;;;;;4986473;28;20082;-74
2021/05/28 10:17:05;;;;;;;2.55;1.80;;;15.50;99.90;;;;;;4988983;28;20098;-72
2021/05/28 10:19:35;;;;;;;4.65;2.10;;;15.70;99.90;;;;;;5005122;28;20029;-77
2021/05/28 10:22:02;;;;;;;2.75;1.60;;;15.90;99.90;;;;;;5003602;28;20042;-77
2021/05/28 10:24:29;;;;;;;4.03;1.40;;;16.10;99.90;;;;;;5005663;28;20046;-77
2021/05/28 10:26:55;;;;;;;2.65;1.08;;;16.30;99.90;;;;;;4999693;28;20023;-78
2021/05/28 10:29:25;;;;;;;2.53;1.50;;;16.40;99.90;;;;;;4984737;28;20113;-76
2021/05/28 10:32:02;;;;;;;3.97;1.52;;;16.50;99.90;;;;;;4984901;28;20146;-71
2021/05/28 10:34:30;;;;;;;1.08;0.90;;;16.60;99.90;;;;;;4986022;28;20136;-75
2021/05/28 10:36:57;;;;;;;1.70;1.20;;;16.50;99.90;;;;;;4984260;28;20031;-75
2021/05/28 10:39:24;;;;;;;6.15;1.20;;;16.50;99.90;;;;;;4984313;28;20041;-72
2021/05/28 10:41:57;;;;;;;2.53;1.30;;;16.60;99.90;;;;;;4985570;28;20058;-74
2021/05/28 10:44:40;;;;;;;1.95;1.08;;;16.90;99.90;;;;;;4985362;28;20043;-71
2021/05/28 10:47:12;;;;;;;1.42;0.82;;;17.10;99.90;;;;;;4986370;28;20049;-76
2021/05/28 10:49:45;;;;;;;1.70;0.80;;;17.00;99.90;;;;;;4985789;28;20034;-74
2021/05/28 10:52:14;;;;;;;1.65;1.02;;;17.00;99.90;;;;;;4984533;28;20031;-74
2021/05/28 10:54:42;;;;;;;5.85;1.73;;;16.90;99.90;;;;;;4985735;28;20035;-74
2021/05/28 10:57:23;;;;;;;6.55;1.60;;;16.90;99.90;;;;;;4985094;28;20384;-76
2021/05/28 10:59:51;;;;;;;3.42;1.15;;;17.00;99.90;;;;;;4985579;28;20070;-75
2021/05/28 11:02:47;;;;;;;2.45;1.40;;;17.00;99.90;;;;;;4992036;28;20037;-74
2021/05/28 11:05:14;;;;;;;2.47;1.42;;;16.90;99.90;;;;;;5005778;28;20030;-73
2021/05/28 11:07:45;;;;;;;7.53;1.67;;;16.80;99.90;;;;;;5009240;28;20037;-73
2021/05/28 11:10:22;;;;;;;1.83;1.05;;;16.80;99.90;;;;;;5007827;28;20041;-75
2021/05/28 11:12:48;;;;;;;1.33;1.10;;;16.60;99.90;;;;;;5008664;28;20033;-76
2021/05/28 11:15:20;;;;;;;2.05;0.90;;;16.70;99.90;;;;;;5008718;28;20019;-74
2021/05/28 11:17:58;;;;;;;2.78;1.60;;;17.00;99.90;;;;;;5008882;28;20538;-74
2021/05/28 11:20:26;;;;;;;11.18;1.80;;;17.30;99.90;;;;;;5008295;28;20037;-73
2021/05/28 11:22:52;;;;;;;3.33;1.17;;;17.60;99.90;;;;;;5007427;28;20038;-76
2021/05/28 11:25:19;;;;;;;2.25;1.50;;;18.10;99.90;;;;;;5006852;28;20077;-72
2021/05/28 11:28:00;;;;;;;1.50;1.00;;;18.30;99.90;;;;;;5007927;28;20090;-74
2021/05/28 11:30:28;;;;;;;2.75;1.20;;;18.60;99.90;;;;;;5005645;28;20034;-73
2021/05/28 11:32:53;;;;;;;2.53;1.35;;;18.80;99.90;;;;;;5006949;28;20034;-74
2021/05/28 11:35:27;;;;;;;3.78;0.88;;;18.90;99.90;;;;;;5006896;28;20034;-74
2021/05/28 11:38:01;;;;;;;6.28;1.23;;;19.00;99.90;;;;;;5007051;28;20030;-77
2021/05/28 11:40:28;;;;;;;1.38;0.98;;;19.20;99.90;;;;;;5004451;28;20096;-76
2021/05/28 11:43:08;;;;;;;3.78;1.42;;;19.40;99.90;;;;;;5005318;28;20046;-75
2021/05/28 11:45:35;;;;;;;3.28;1.23;;;19.80;99.90;;;;;;5007223;28;20064;-74
2021/05/28 11:48:01;;;;;;;4.18;1.58;;;20.00;99.90;;;;;;5006025;28;20512;-74
2021/05/28 11:50:39;;;;;;;2.92;1.48;;;20.20;99.90;;;;;;5007385;28;20022;-70
2021/05/28 11:53:09;;;;;;;2.92;1.23;;;20.10;99.90;;;;;;5007491;28;20025;-71
2021/05/28 11:55:44;;;;;;;2.13;1.10;;;19.80;99.90;;;;;;5006515;28;20571;-76
2021/05/28 11:58:10;;;;;;;2.13;1.17;;;19.90;99.90;;;;;;5007098;28;20026;-75
2021/05/28 12:00:37;;;;;;;0.82;0.55;;;20.00;99.90;;;;;;5007060;28;20026;-75
2021/05/28 12:03:03;;;;;;;1.60;0.93;;;20.00;99.90;;;;;;5007145;28;20078;-74
2021/05/28 12:05:36;;;;;;;1.67;0.80;;;19.80;99.90;;;;;;5006361;28;20361;-75
2021/05/28 12:08:11;;;;;;;1.88;0.90;;;20.00;99.90;;;;;;5007171;28;20766;-76
2021/05/28 12:10:40;;;;;;;3.55;0.90;;;20.10;99.90;;;;;;5007896;28;20030;-75
2021/05/28 12:13:10;;;;;;;2.85;0.68;;;20.30;99.90;;;;;;5006029;28;20058;-75
2021/05/28 12:15:39;;;;;;;0.88;0.70;;;20.40;99.90;;;;;;5007132;28;20015;-71
2021/05/28 12:18:27;;;;;;;2.05;0.90;;;20.50;99.90;;;;;;5006560;28;20029;-73
2021/05/28 12:21:02;;;;;;;3.25;1.05;;;20.40;99.90;;;;;;5007093;28;20030;-76
2021/05/28 12:23:29;;;;;;;1.73;1.10;;;20.60;99.90;;;;;;5007626;28;20054;-71
2021/05/28 12:25:58;;;;;;;2.47;1.10;;;20.60;99.90;;;;;;5007532;28;20026;-74
2021/05/28 12:28:25;;;;;;;1.35;0.60;;;20.70;99.90;;;;;;5007561;28;20035;-76
2021/05/28 12:30:54;;;;;;;1.05;0.80;;;20.90;99.90;;;;;;5006013;28;20027;-76
2021/05/28 12:33:23;;;;;;;3.00;1.00;;;20.80;99.90;;;;;;5006033;28;20042;-74
2021/05/28 12:35:52;;;;;;;1.08;0.52;;;20.50;99.90;;;;;;5005738;28;20050;-75
2021/05/28 12:38:20;;;;;;;2.38;1.30;;;20.60;99.90;;;;;;5006060;28;20030;-72
2021/05/28 12:40:47;;;;;;;0.57;0.52;;;20.90;99.90;;;;;;5007285;28;20034;-75
2021/05/28 12:43:26;;;;;;;2.35;0.77;;;21.10;99.90;;;;;;5005852;28;20034;-74
2021/05/28 12:45:53;;;;;;;2.53;1.25;;;21.40;99.90;;;;;;4996183;28;20038;-75
2021/05/28 12:48:19;;;;;;;1.48;0.65;;;21.30;99.90;;;;;;4987571;28;20050;-79
2021/05/28 12:50:50;;;;;;;2.15;1.17;;;21.00;99.90;;;;;;4987463;28;20078;-74
2021/05/28 12:53:21;;;;;;;4.35;1.08;;;20.60;99.90;;;;;;4987618;28;20030;-73
2021/05/28 12:55:53;;;;;;;1.20;0.75;;;20.30;99.90;;;;;;5007277;28;20101;-74